Time;durP1;ratioP1;P1;durP2;ratioP2;P2;SDS_P1;SDS_P2;PMS_P1;PMS_P2;Temp;Humidity;BMP_temperature;BMP_pressure;BME280_temperature;BME280_humidity;BME280_pressure;Samples;Min_cycle;Max_cycle;Signal;HPM_P1;HPM_P2
2024/02/10 00:00:38;;;;;;;8.85;3.03;;;;;;;-10.34;59.90;98963.44;4989653;28;20490;-40
2024/02/10 00:03:05;;;;;;;5.75;1.95;;;;;;;-10.34;58.87;98963.44;4989252;28;20039;-43
2024/02/10 00:05:30;;;;;;;5.85;2.50;;;;;;;-10.34;59.70;98970.97;4989311;28;20038;-42
2024/02/10 00:07:56;;;;;;;5.75;2.08;;;;;;;-10.38;59.03;98967.50;4989152;28;20404;-41
2024/02/10 00:10:24;;;;;;;12.13;2.80;;;;;;;-10.38;59.53;98967.50;5006143;28;20521;-41
2024/02/10 00:13:00;;;;;;;4.95;2.22;;;;;;;-10.36;59.00;98962.53;4979703;28;20050;-41
2024/02/10 00:15:27;;;;;;;8.88;2.38;;;;;;;-10.37;59.30;98963.31;4985659;28;20070;-40
2024/02/10 00:17:53;;;;;;;5.65;2.72;;;;;;;-10.35;59.54;98961.72;4948678;28;20041;-41
2024/02/10 00:20:20;;;;;;;8.00;2.95;;;;;;;-10.37;59.66;98963.31;4990011;28;20042;-41
2024/02/10 00:22:50;;;;;;;6.82;2.40;;;;;;;-10.37;58.98;98963.31;4991723;28;20096;-42
2024/02/10 00:25:16;;;;;;;6.25;2.75;;;;;;;-10.61;59.10;98932.28;5009435;28;20092;-41
2024/02/10 00:27:53;;;;;;;7.25;2.83;;;;;;;-10.67;59.80;98912.81;4990675;28;20473;-41
2024/02/10 00:30:19;;;;;;;5.22;2.70;;;;;;;-10.59;59.26;98935.72;4993968;28;20780;-41
2024/02/10 00:32:51;;;;;;;8.35;3.22;;;;;;;-10.89;60.08;98887.75;4971917;28;20050;-40
2024/02/10 00:35:22;;;;;;;6.68;2.70;;;;;;;-10.44;59.99;98974.81;5009108;28;20079;-42
2024/02/10 00:37:49;;;;;;;5.40;2.00;;;;;;;-10.42;59.19;98980.75;5006535;28;20042;-41
2024/02/10 00:40:16;;;;;;;6.65;2.38;;;;;;;-10.44;59.48;98977.31;4988073;28;20038;-41
2024/02/10 00:42:42;;;;;;;4.88;2.35;;;;;;;-10.43;60.04;98981.53;4988198;28;20431;-42
2024/02/10 00:45:09;;;;;;;6.65;2.60;;;;;;;-10.43;59.38;98978.16;4992188;28;20064;-41
2024/02/10 00:47:36;;;;;;;5.80;2.80;;;;;;;-10.48;59.74;98978.00;4981210;28;20041;-42
2024/02/10 00:50:03;;;;;;;9.05;2.83;;;;;;;-10.45;60.24;98982.28;5003102;28;20039;-40
2024/02/10 00:52:31;;;;;;;6.20;2.35;;;;;;;-10.90;59.84;98921.19;5002914;28;20100;-41
2024/02/10 00:54:57;;;;;;;5.82;2.65;;;;;;;-10.47;59.39;98987.25;5008549;28;20084;-42
2024/02/10 00:57:24;;;;;;;7.25;2.83;;;;;;;-10.61;59.91;98970.81;4990808;28;20041;-41
2024/02/10 00:59:50;;;;;;;8.68;3.45;;;;;;;-10.46;59.43;98993.09;5006372;28;20049;-40
2024/02/10 01:02:19;;;;;;;8.15;3.10;;;;;;;-10.47;60.04;98998.97;5005846;28;20655;-41
2024/02/10 01:04:49;;;;;;;8.27;2.80;;;;;;;-10.50;60.19;99009.72;4988652;28;20045;-41
2024/02/10 01:07:15;;;;;;;;;;;;;;;-10.52;60.27;99008.81;4972428;28;20514;-41
2024/02/10 01:09:46;;;;;;;11.60;3.28;;;;;;;-10.58;59.96;99008.59;4974606;28;19917;-41
2024/02/10 01:12:13;;;;;;;9.40;3.17;;;;;;;-10.59;59.83;99011.06;4995983;28;20042;-41
2024/02/10 01:14:40;;;;;;;7.53;3.60;;;;;;;-10.60;60.51;99020.22;4975403;28;20133;-42
2024/02/10 01:17:10;;;;;;;8.55;2.92;;;;;;;-10.60;60.46;99021.88;4987624;28;20141;-41
2024/02/10 01:19:49;;;;;;;;;;;;;;;-10.61;60.78;99030.22;5002198;28;20596;-40
2024/02/10 01:22:25;;;;;;;4.85;2.78;;;;;;;-10.66;60.24;99031.69;4996198;28;20523;-40
2024/02/10 01:24:55;;;;;;;6.18;2.70;;;;;;;-10.92;60.01;98993.03;5000137;28;20076;-41
2024/02/10 01:27:22;;;;;;;;;;;;;;;-10.68;60.66;99033.31;4994350;28;20053;-46
2024/02/10 01:29:50;;;;;;;6.10;2.63;;;;;;;-10.83;60.31;99021.00;4996894;28;20167;-44
2024/02/10 01:32:19;;;;;;;7.60;2.55;;;;;;;-10.80;60.34;99037.03;4989238;28;20073;-42
2024/02/10 01:34:48;;;;;;;6.97;2.70;;;;;;;-10.77;60.96;99049.72;5006557;28;20050;-40
2024/02/10 01:37:18;;;;;;;9.23;3.47;;;;;;;-10.79;60.48;99045.44;4989357;28;20084;-41
2024/02/10 01:39:44;;;;;;;;;;;;;;;-10.77;60.36;99057.25;4991251;28;20042;-41
2024/02/10 01:42:13;;;;;;;10.20;2.70;;;;;;;-10.82;60.97;99061.22;4986451;28;19968;-42
2024/02/10 01:44:43;;;;;;;9.25;3.20;;;;;;;-10.85;60.27;99067.78;4999177;28;20109;-41
2024/02/10 01:47:11;;;;;;;10.00;2.80;;;;;;;-10.87;60.76;99076.91;5005588;28;20096;-42
2024/02/10 01:49:37;;;;;;;6.75;3.00;;;;;;;-10.86;60.41;99069.44;5005718;28;20045;-44
2024/02/10 01:52:07;;;;;;;6.57;3.10;;;;;;;-11.04;60.68;99043.59;5006447;28;20041;-41
2024/02/10 01:54:35;;;;;;;7.45;3.58;;;;;;;-10.90;60.36;99074.28;5001733;28;20092;-41
2024/02/10 01:57:06;;;;;;;8.98;3.35;;;;;;;-10.88;60.70;99078.53;4988874;28;20092;-39
2024/02/10 01:59:35;;;;;;;8.27;2.88;;;;;;;-10.86;60.21;99084.50;4988797;28;20038;-45
2024/02/10 02:02:05;;;;;;;6.95;2.72;;;;;;;-10.88;61.34;99087.72;5006904;28;20156;-41
2024/02/10 02:04:35;;;;;;;7.93;2.80;;;;;;;-10.89;60.96;99098.59;5006182;28;20128;-41
2024/02/10 02:07:09;;;;;;;6.85;3.08;;;;;;;-10.94;60.95;99090.88;4974785;28;20121;-40
2024/02/10 02:09:36;;;;;;;8.40;2.92;;;;;;;-10.97;61.15;99090.72;4987922;28;20049;-41
2024/02/10 02:12:07;;;;;;;6.90;3.20;;;;;;;-10.95;60.89;99104.22;4969623;28;20042;-41
2024/02/10 02:14:38;;;;;;;9.23;3.15;;;;;;;-10.96;61.05;99096.63;4987221;28;20125;-41
2024/02/10 02:17:06;;;;;;;6.88;2.25;;;;;;;-10.97;60.75;99102.41;4973631;28;20053;-42
2024/02/10 02:19:33;;;;;;;6.93;2.83;;;;;;;-10.99;60.79;99104.84;4986414;28;20430;-41
2024/02/10 02:22:00;;;;;;;7.05;2.83;;;;;;;-10.97;61.06;99099.91;4977543;28;20088;-40
2024/02/10 02:24:32;;;;;;;5.25;2.40;;;;;;;-11.06;61.08;99090.38;4995048;28;20046;-41
2024/02/10 02:26:59;;;;;;;8.57;3.28;;;;;;;-10.97;60.51;99098.25;4987130;28;20569;-41
2024/02/10 02:29:26;;;;;;;8.10;3.10;;;;;;;-10.96;60.67;99094.97;4995098;28;20052;-41
2024/02/10 02:32:00;;;;;;;5.88;2.35;;;;;;;-10.95;61.30;99099.19;4998848;28;20046;-40
2024/02/10 02:34:27;;;;;;;8.93;2.80;;;;;;;-10.96;61.39;99102.50;4988522;28;20050;-41
2024/02/10 02:36:53;;;;;;;5.68;2.40;;;;;;;-10.96;60.60;99104.13;5003909;28;20042;-41
2024/02/10 02:39:21;;;;;;;9.50;2.80;;;;;;;-10.99;61.16;99106.53;4988055;28;20418;-41
2024/02/10 02:41:47;;;;;;;7.40;3.40;;;;;;;-11.01;60.93;99108.13;4997768;28;20042;-40
2024/02/10 02:44:16;;;;;;;7.72;3.03;;;;;;;-11.31;60.72;99070.94;5006603;28;20041;-41
2024/02/10 02:46:44;;;;;;;8.25;3.03;;;;;;;-11.25;61.13;99093.75;4998834;28;20080;-41
2024/02/10 02:49:15;;;;;;;9.98;3.15;;;;;;;-11.10;61.51;99121.16;5005332;28;20054;-41
2024/02/10 02:51:42;;;;;;;6.72;2.92;;;;;;;-11.29;60.83;99081.03;4966926;28;20469;-41
2024/02/10 02:54:11;;;;;;;5.95;2.63;;;;;;;-11.07;61.18;99120.41;4998668;28;20497;-40
2024/02/10 02:56:36;;;;;;;10.77;3.08;;;;;;;-11.06;61.44;99123.00;5007054;28;20049;-39
2024/02/10 02:59:05;;;;;;;6.68;3.40;;;;;;;-11.05;61.58;99123.84;5004656;28;20502;-41
2024/02/10 03:01:33;;;;;;;12.95;3.70;;;;;;;-11.33;61.83;99070.03;5005940;28;20075;-44
2024/02/10 03:03:59;;;;;;;8.63;4.07;;;;;;;-11.34;60.88;99057.41;4993491;28;20049;-39
2024/02/10 03:06:25;;;;;;;8.05;3.33;;;;;;;-10.98;61.13;99106.56;5007415;28;20040;-41
2024/02/10 03:08:51;;;;;;;9.40;3.45;;;;;;;-10.60;61.11;99154.97;5004517;28;20479;-39
2024/02/10 03:11:18;;;;;;;9.57;3.90;;;;;;;-10.72;60.43;99110.13;5006287;28;20042;-41
2024/02/10 03:13:45;;;;;;;8.38;3.78;;;;;;;-10.29;60.12;99160.41;5002132;28;20042;-40
2024/02/10 03:16:11;;;;;;;16.10;5.07;;;;;;;-10.21;60.33;99166.59;4985908;28;20161;-41
2024/02/10 03:18:44;;;;;;;10.55;4.28;;;;;;;-10.14;60.33;99175.19;4986900;28;20084;-41
2024/02/10 03:21:15;;;;;;;8.50;3.50;;;;;;;-10.07;60.79;99172.13;4985899;28;20038;-40
2024/02/10 03:23:41;;;;;;;9.52;3.72;;;;;;;-9.95;60.52;99173.47;4975200;28;20507;-40
2024/02/10 03:26:07;;;;;;;10.57;3.80;;;;;;;-9.93;59.84;99171.84;5003095;28;20204;-42
2024/02/10 03:28:33;;;;;;;9.10;3.50;;;;;;;-9.76;59.27;99180.03;5001002;28;20572;-41
2024/02/10 03:31:03;;;;;;;7.82;3.28;;;;;;;-9.71;59.21;99188.59;4996272;28;20068;-41
2024/02/10 03:33:30;;;;;;;;;;;;;;;-9.63;60.05;99201.47;4981586;28;20190;-41
2024/02/10 03:35:57;;;;;;;6.38;2.63;;;;;;;-9.65;59.17;99193.00;5001163;28;19921;-41
2024/02/10 03:38:23;;;;;;;6.18;2.63;;;;;;;-9.58;59.52;99205.00;4995768;28;20048;-40
2024/02/10 03:40:49;;;;;;;6.82;2.85;;;;;;;-9.53;58.26;99216.09;5005825;28;20091;-44
2024/02/10 03:43:21;;;;;;;6.00;2.70;;;;;;;-9.74;58.87;99165.00;5004689;28;20526;-41
2024/02/10 03:45:47;;;;;;;8.95;4.03;;;;;;;-9.45;58.27;99214.69;4994624;28;20562;-41
2024/02/10 03:48:14;;;;;;;8.73;3.53;;;;;;;-9.43;58.31;99211.47;4993862;28;20136;-40
2024/02/10 03:50:40;;;;;;;8.20;3.08;;;;;;;-9.69;59.06;99155.97;4988259;28;20046;-43
2024/02/10 03:53:06;;;;;;;8.07;3.50;;;;;;;-9.35;57.96;99211.72;5003340;28;20081;-41
2024/02/10 03:55:32;;;;;;;8.88;3.58;;;;;;;-9.36;58.61;99202.44;4972245;28;20047;-40
2024/02/10 03:57:59;;;;;;;9.23;3.70;;;;;;;-9.26;58.61;99214.56;5003689;28;20073;-40
2024/02/10 04:00:26;;;;;;;8.57;3.60;;;;;;;-9.25;57.86;99216.28;4986736;28;20045;-40
2024/02/10 04:02:54;;;;;;;7.95;3.70;;;;;;;-9.22;58.36;99223.09;4984868;28;20046;-41
2024/02/10 04:05:21;;;;;;;11.32;4.57;;;;;;;-9.21;57.64;99214.75;4965814;28;20649;-41
2024/02/10 04:07:49;;;;;;;8.05;3.58;;;;;;;-9.43;58.03;99188.81;4988112;28;20045;-41
2024/02/10 04:10:16;;;;;;;11.68;3.35;;;;;;;-9.23;57.60;99226.41;5004088;28;20128;-41
2024/02/10 04:12:42;;;;;;;10.40;3.60;;;;;;;-9.22;58.24;99225.63;4985314;28;20064;-40
2024/02/10 04:15:11;;;;;;;12.00;4.13;;;;;;;-9.21;57.73;99229.84;5000885;28;20136;-39
2024/02/10 04:17:48;;;;;;;10.20;3.08;;;;;;;-9.21;57.73;99238.22;5001611;28;20410;-41
2024/02/10 04:20:15;;;;;;;7.82;3.15;;;;;;;-9.21;56.99;99243.25;5002539;28;20148;-40
2024/02/10 04:22:45;;;;;;;9.65;3.50;;;;;;;-9.22;57.45;99235.69;5003539;28;20073;-40
2024/02/10 04:25:14;;;;;;;10.10;3.13;;;;;;;-9.25;57.99;99238.94;5006172;28;20041;-40
2024/02/10 04:27:42;;;;;;;7.38;2.95;;;;;;;-9.26;57.01;99242.25;5004460;28;20041;-41
2024/02/10 04:30:10;;;;;;;7.82;3.58;;;;;;;-9.30;57.19;99235.41;5004459;28;20046;-42
2024/02/10 04:32:46;;;;;;;7.78;3.15;;;;;;;-9.37;57.33;99243.53;5005236;28;20601;-42
2024/02/10 04:35:14;;;;;;;8.60;3.35;;;;;;;-9.43;57.99;99246.69;5005002;28;20041;-42
2024/02/10 04:37:51;;;;;;;8.88;3.38;;;;;;;-9.47;57.20;99242.31;5007528;28;20584;-41
2024/02/10 04:40:18;;;;;;;9.88;3.80;;;;;;;-9.50;57.89;99242.22;4980908;28;20153;-40
2024/02/10 04:42:45;;;;;;;9.82;4.00;;;;;;;-9.71;56.90;99210.38;4977067;28;20121;-40
2024/02/10 04:45:22;;;;;;;9.43;3.97;;;;;;;-9.57;57.18;99244.44;4973864;28;20042;-41
2024/02/10 04:47:51;;;;;;;7.57;3.05;;;;;;;-9.76;57.17;99229.44;4988699;28;20125;-41
2024/02/10 04:50:19;;;;;;;11.82;4.00;;;;;;;-9.90;57.05;99226.41;5004979;28;20046;-42
2024/02/10 04:52:45;;;;;;;9.20;3.13;;;;;;;-9.88;57.42;99255.84;5006651;28;20540;-41
2024/02/10 04:55:21;;;;;;;6.45;3.00;;;;;;;-9.92;57.23;99261.53;4983553;28;20132;-41
2024/02/10 04:57:48;;;;;;;7.60;3.60;;;;;;;-10.28;57.86;99216.53;5004371;28;20486;-41
2024/02/10 05:00:15;;;;;;;9.68;3.58;;;;;;;-10.05;57.37;99273.59;5007516;28;20100;-40
2024/02/10 05:02:45;;;;;;;9.52;3.85;;;;;;;-10.09;57.43;99266.69;4993636;28;20061;-40
2024/02/10 05:05:12;;;;;;;8.95;2.85;;;;;;;-10.13;57.64;99270.75;4988380;28;20844;-41
2024/02/10 05:07:42;;;;;;;12.45;4.10;;;;;;;-10.18;58.56;99278.94;4990157;28;20073;-41
2024/02/10 05:10:14;;;;;;;6.75;3.42;;;;;;;-10.21;57.74;99271.28;4999512;28;20042;-43
2024/02/10 05:12:44;;;;;;;7.95;3.35;;;;;;;-10.22;58.07;99282.97;4994353;28;20046;-41
2024/02/10 05:15:14;;;;;;;8.57;4.18;;;;;;;-10.29;58.66;99291.06;4989526;28;20038;-43
2024/02/10 05:17:44;;;;;;;8.43;3.03;;;;;;;-10.32;58.42;99285.91;4988099;28;20093;-42
2024/02/10 05:20:19;;;;;;;;;;;;;;;-10.33;58.72;99290.09;5005564;28;20053;-42
2024/02/10 05:22:50;;;;;;;7.63;3.50;;;;;;;-10.37;59.12;99297.44;4992930;28;19971;-41
2024/02/10 05:25:20;;;;;;;6.70;2.97;;;;;;;-10.38;58.95;99299.09;4980321;28;20046;-41
2024/02/10 05:27:50;;;;;;;9.90;3.75;;;;;;;-10.32;59.24;99309.38;5009481;28;20061;-42
2024/02/10 05:30:21;;;;;;;9.40;3.38;;;;;;;-10.26;58.84;99306.28;4979920;28;20033;-41
2024/02/10 05:32:49;;;;;;;9.23;3.35;;;;;;;-10.14;58.16;99305.84;4982063;28;20565;-41
2024/02/10 05:35:19;;;;;;;7.00;3.50;;;;;;;-10.08;58.68;99313.66;4977234;28;20049;-42
2024/02/10 05:37:53;;;;;;;10.57;3.90;;;;;;;-10.26;58.26;99263.56;4986121;28;20038;-42
2024/02/10 05:40:24;;;;;;;12.02;3.53;;;;;;;-9.84;58.92;99303.75;4994496;28;20033;-42
2024/02/10 05:42:51;;;;;;;7.43;3.13;;;;;;;-9.72;58.34;99316.78;4995282;28;20186;-41
2024/02/10 05:45:18;;;;;;;12.05;4.88;;;;;;;-9.58;57.64;99319.06;4994378;28;20038;-43
2024/02/10 05:47:45;;;;;;;11.35;3.70;;;;;;;-9.37;57.70;99324.06;5002006;28;20553;-41
2024/02/10 05:50:15;;;;;;;15.43;4.55;;;;;;;-9.12;57.72;99325.84;4998025;28;20514;-41
2024/02/10 05:52:57;;;;;;;13.30;4.63;;;;;;;-8.90;57.29;99328.34;4995104;28;20073;-41
2024/02/10 05:55:27;;;;;;;17.15;4.55;;;;;;;-8.79;57.37;99329.56;5002739;28;20042;-41
2024/02/10 05:58:06;;;;;;;10.63;4.00;;;;;;;-8.49;56.60;99336.53;4999016;28;20042;-40
2024/02/10 06:00:33;;;;;;;11.95;4.53;;;;;;;-8.33;56.14;99306.00;4995095;28;20046;-40
2024/02/10 06:03:02;;;;;;;13.13;5.32;;;;;;;-7.76;56.00;99337.28;5002653;28;20042;-41
2024/02/10 06:05:30;;;;;;;14.63;4.45;;;;;;;-7.34;55.19;99341.19;4991786;28;20502;-41
2024/02/10 06:07:56;;;;;;;10.73;4.28;;;;;;;-7.06;54.34;99335.25;4995129;28;20061;-40
2024/02/10 06:10:22;;;;;;;10.55;4.20;;;;;;;-6.64;54.05;99342.38;4995597;28;20041;-40
2024/02/10 06:12:49;;;;;;;13.82;4.90;;;;;;;-6.27;53.09;99345.09;5002234;28;20132;-41
2024/02/10 06:15:20;;;;;;;13.50;3.90;;;;;;;-5.89;52.68;99342.69;4995745;28;20042;-42
2024/02/10 06:17:49;;;;;;;12.43;4.57;;;;;;;-5.48;51.86;99342.00;4999192;28;20140;-42
2024/02/10 06:20:15;;;;;;;7.80;4.35;;;;;;;-5.22;51.26;99346.00;4994567;28;20052;-41
2024/02/10 06:22:42;;;;;;;10.07;4.20;;;;;;;-4.88;50.14;99354.34;4995225;28;20038;-42
2024/02/10 06:25:12;;;;;;;9.75;4.35;;;;;;;-4.50;50.05;99361.06;4977243;28;20088;-43
2024/02/10 06:27:42;;;;;;;11.75;4.72;;;;;;;-4.59;49.60;99294.06;4994331;28;20043;-40
2024/02/10 06:30:16;;;;;;;10.90;4.78;;;;;;;-3.91;49.18;99358.81;4991626;28;20132;-41
2024/02/10 06:32:44;;;;;;;11.95;5.07;;;;;;;-3.61;48.09;99361.03;4976475;28;20414;-42
2024/02/10 06:35:11;;;;;;;14.70;4.63;;;;;;;-3.72;47.77;99297.38;4976894;28;20038;-41
2024/02/10 06:37:37;;;;;;;11.73;5.00;;;;;;;-3.03;47.15;99370.41;4994116;28;20042;-43
2024/02/10 06:40:08;;;;;;;11.70;5.05;;;;;;;-2.69;46.16;99377.69;4998054;28;20092;-42
2024/02/10 06:42:35;;;;;;;13.52;5.07;;;;;;;-2.40;46.10;99374.66;4999057;28;20082;-41
2024/02/10 06:45:04;;;;;;;12.55;5.15;;;;;;;-2.18;45.11;99377.47;5000295;28;20517;-41
2024/02/10 06:47:31;;;;;;;;;;;;;;;-1.79;44.50;99382.16;4973098;28;20056;-42
2024/02/10 06:49:57;;;;;;;13.30;5.18;;;;;;;-1.54;43.77;99382.38;4989930;28;19967;-43
2024/02/10 06:52:23;;;;;;;11.07;4.75;;;;;;;-1.23;43.43;99381.78;5005006;28;20096;-41
2024/02/10 06:54:50;;;;;;;11.02;4.82;;;;;;;-0.88;42.49;99385.44;4983867;28;20073;-42
2024/02/10 06:57:16;;;;;;;14.82;5.43;;;;;;;-0.49;42.15;99389.94;4998178;28;20084;-41
2024/02/10 06:59:44;;;;;;;11.77;5.38;;;;;;;-0.30;41.80;99360.22;4986661;28;20081;-44
2024/02/10 07:02:13;;;;;;;16.90;5.32;;;;;;;0.26;41.44;99390.22;4971392;28;20056;-43
2024/02/10 07:04:41;;;;;;;12.88;6.00;;;;;;;0.60;40.76;99398.78;5004758;28;20042;-42
2024/02/10 07:07:06;;;;;;;12.65;5.70;;;;;;;0.82;39.99;99398.78;4996552;28;20042;-42
2024/02/10 07:09:35;;;;;;;14.68;5.72;;;;;;;0.98;39.15;99414.13;4999767;28;20042;-42
2024/02/10 07:12:01;;;;;;;14.18;6.25;;;;;;;1.05;39.21;99414.13;5004965;28;20406;-42
2024/02/10 07:14:27;;;;;;;13.85;6.38;;;;;;;1.34;39.15;99420.94;5002648;28;20075;-43
2024/02/10 07:16:55;;;;;;;12.40;6.38;;;;;;;1.52;38.09;99419.16;5005723;28;20041;-42
2024/02/10 07:19:21;;;;;;;15.30;6.00;;;;;;;1.95;37.65;99413.91;4995377;28;20042;-43
2024/02/10 07:21:48;;;;;;;14.60;7.10;;;;;;;2.09;36.76;99410.41;4988665;28;20034;-43
2024/02/10 07:24:13;;;;;;;19.90;6.78;;;;;;;2.46;36.52;99421.31;4992708;28;20418;-41
2024/02/10 07:26:42;;;;;;;17.92;7.15;;;;;;;2.71;35.99;99419.47;5005784;28;20092;-43
2024/02/10 07:29:09;;;;;;;17.67;6.20;;;;;;;2.90;35.46;99403.06;5006029;28;20041;-44
2024/02/10 07:31:35;;;;;;;17.75;7.03;;;;;;;3.16;35.25;99432.81;4989479;28;20261;-43
2024/02/10 07:34:02;;;;;;;19.42;7.90;;;;;;;3.38;35.00;99422.31;4989813;28;20046;-44
2024/02/10 07:36:35;;;;;;;17.90;8.05;;;;;;;3.68;34.92;99433.16;4995793;28;20494;-44
2024/02/10 07:39:06;;;;;;;23.00;8.55;;;;;;;3.99;34.58;99433.66;4985652;28;20133;-43
2024/02/10 07:41:35;;;;;;;15.93;7.72;;;;;;;4.14;33.72;99438.59;4974707;28;20087;-45
2024/02/10 07:44:06;;;;;;;16.30;8.98;;;;;;;4.05;33.28;99443.88;4972749;28;20065;-43
2024/02/10 07:46:34;;;;;;;14.90;7.00;;;;;;;3.68;33.53;99389.44;4977147;28;20053;-44
2024/02/10 07:49:04;;;;;;;16.45;7.90;;;;;;;3.84;33.58;99408.97;4969622;28;20116;-44
2024/02/10 07:51:32;;;;;;;17.20;7.30;;;;;;;4.23;33.25;99451.38;4990563;28;20053;-42
2024/02/10 07:53:59;;;;;;;14.30;7.03;;;;;;;4.30;32.63;99452.13;4997264;28;20163;-42
2024/02/10 07:56:29;;;;;;;14.93;6.60;;;;;;;4.08;32.67;99449.00;4996186;28;20488;-43
2024/02/10 07:58:59;;;;;;;13.23;6.45;;;;;;;4.22;32.88;99455.66;4995309;28;20038;-42
2024/02/10 08:01:26;;;;;;;19.02;8.38;;;;;;;4.34;32.39;99428.94;4987253;28;20042;-43
2024/02/10 08:03:56;;;;;;;20.38;6.55;;;;;;;4.69;32.29;99460.19;4969566;28;20181;-42
2024/02/10 08:06:30;;;;;;;15.98;6.20;;;;;;;4.58;32.09;99456.06;4991108;28;20132;-43
2024/02/10 08:09:04;;;;;;;11.23;5.57;;;;;;;4.66;32.32;99467.09;4994991;28;20073;-44
2024/02/10 08:11:32;;;;;;;9.70;5.00;;;;;;;4.88;32.26;99470.19;4993346;28;20037;-43
2024/02/10 08:13:57;;;;;;;9.93;5.25;;;;;;;5.21;31.64;99464.53;4978567;28;20104;-42
2024/02/10 08:16:25;;;;;;;15.32;6.30;;;;;;;5.71;31.32;99466.22;4973447;28;20124;-41
2024/02/10 08:18:51;;;;;;;16.15;5.82;;;;;;;5.76;31.00;99469.56;4997235;28;20144;-41
2024/02/10 08:21:20;;;;;;;11.23;6.03;;;;;;;5.50;31.66;99467.47;4989209;28;20046;-51
2024/02/10 08:23:49;;;;;;;10.85;6.07;;;;;;;5.38;31.40;99438.50;5002110;28;20620;-42
2024/02/10 08:26:21;;;;;;;15.88;6.95;;;;;;;5.83;30.94;99486.66;4999608;28;20042;-42
2024/02/10 08:28:58;;;;;;;12.27;5.93;;;;;;;6.10;31.16;99476.72;4989367;28;20137;-42
2024/02/10 08:31:24;;;;;;;15.85;6.05;;;;;;;6.39;30.02;99488.16;4993658;28;20042;-43
2024/02/10 08:33:50;;;;;;;13.63;5.70;;;;;;;6.37;30.37;99484.78;4980068;28;20049;-43
2024/02/10 08:36:17;;;;;;;13.02;6.97;;;;;;;6.67;29.82;99465.19;4977664;28;20550;-43
2024/02/10 08:38:43;;;;;;;10.93;6.20;;;;;;;7.02;29.34;99490.22;4992738;28;20053;-42
2024/02/10 08:41:14;;;;;;;16.13;6.82;;;;;;;7.42;29.07;99495.31;4991509;28;20041;-44
2024/02/10 08:43:47;;;;;;;16.80;6.00;;;;;;;7.39;28.64;99486.75;4994920;28;20046;-44
2024/02/10 08:46:17;;;;;;;15.80;7.28;;;;;;;7.12;29.10;99459.81;4973411;28;20049;-44
2024/02/10 08:48:43;;;;;;;17.10;6.90;;;;;;;7.06;28.67;99493.59;4993412;28;20147;-42
2024/02/10 08:51:13;;;;;;;18.30;6.97;;;;;;;6.43;28.61;99451.97;4978735;28;20104;-41
2024/02/10 08:53:42;;;;;;;13.50;6.15;;;;;;;6.91;28.75;99491.38;4999903;28;20080;-43
2024/02/10 08:56:13;;;;;;;16.25;8.27;;;;;;;7.12;28.50;99489.13;4995721;28;20437;-43
2024/02/10 08:58:40;;;;;;;22.92;8.43;;;;;;;7.47;28.08;99497.78;4960948;28;20140;-43
2024/02/10 09:01:15;;;;;;;17.88;7.78;;;;;;;7.40;27.86;99478.13;4994665;28;20041;-44
2024/02/10 09:03:49;;;;;;;19.00;7.68;;;;;;;7.73;27.72;99503.16;4964565;28;20062;-42
2024/02/10 09:06:20;;;;;;;15.02;7.68;;;;;;;7.79;27.83;99500.41;4991046;28;20132;-43
2024/02/10 09:08:49;;;;;;;21.63;8.20;;;;;;;8.11;27.54;99503.88;4988442;28;20069;-43
2024/02/10 09:11:14;;;;;;;19.45;8.40;;;;;;;8.07;27.16;99500.50;4990157;28;20581;-42
2024/02/10 09:13:40;;;;;;;16.92;8.32;;;;;;;8.02;27.19;99499.78;4991454;28;20538;-43
2024/02/10 09:16:07;;;;;;;18.45;8.88;;;;;;;8.16;26.98;99500.28;4975877;28;20477;-48
2024/02/10 09:18:33;;;;;;;21.70;8.55;;;;;;;8.25;26.76;99502.59;4985592;28;20117;-44
2024/02/10 09:20:59;;;;;;;14.90;8.18;;;;;;;8.17;26.74;99514.03;4998956;28;20074;-43
2024/02/10 09:23:30;;;;;;;22.98;9.60;;;;;;;7.57;26.87;99507.84;4979973;28;20481;-44
2024/02/10 09:25:56;;;;;;;16.65;8.68;;;;;;;7.28;27.12;99510.28;4996647;28;20129;-44
2024/02/10 09:28:24;;;;;;;18.30;9.65;;;;;;;7.49;27.25;99514.94;4981010;28;20064;-43
2024/02/10 09:30:49;;;;;;;18.60;9.32;;;;;;;7.41;27.56;99505.69;4981925;28;20399;-43
2024/02/10 09:33:21;;;;;;;21.48;9.35;;;;;;;7.40;27.06;99486.72;4982797;28;20052;-43
2024/02/10 09:35:51;;;;;;;19.83;9.02;;;;;;;7.88;27.12;99507.06;4997382;28;20153;-43
2024/02/10 09:38:22;;;;;;;18.60;8.82;;;;;;;7.93;26.89;99469.81;4994331;28;20053;-44
2024/02/10 09:40:56;;;;;;;24.17;8.60;;;;;;;8.52;26.55;99502.75;4996760;28;20068;-45
2024/02/10 09:43:31;;;;;;;17.67;9.88;;;;;;;8.58;26.26;99513.78;5005873;28;20034;-45
2024/02/10 09:46:03;;;;;;;16.75;9.02;;;;;;;8.16;26.47;99505.44;4981191;28;20050;-42
2024/02/10 09:48:31;;;;;;;22.95;8.88;;;;;;;7.84;26.84;99506.31;4988806;28;20205;-43
2024/02/10 09:50:57;;;;;;;16.13;8.63;;;;;;;7.94;26.68;99488.78;4960642;28;20041;-43
2024/02/10 09:53:24;;;;;;;20.52;8.27;;;;;;;8.38;26.23;99516.91;5007544;28;20037;-44
2024/02/10 09:55:52;;;;;;;18.45;7.82;;;;;;;8.37;26.04;99512.63;5005307;28;20072;-43
2024/02/10 09:58:19;;;;;;;17.35;8.98;;;;;;;7.71;26.78;99501.47;4966497;28;20138;-41
2024/02/10 10:00:47;;;;;;;20.77;9.63;;;;;;;7.09;27.36;99471.09;4996710;28;20076;-42
2024/02/10 10:03:14;;;;;;;15.60;8.27;;;;;;;7.28;27.53;99502.53;4978594;28;20034;-41
2024/02/10 10:05:42;;;;;;;17.52;9.20;;;;;;;6.14;28.04;99502.44;4995564;28;20137;-42
2024/02/10 10:08:10;;;;;;;20.38;9.13;;;;;;;4.99;29.32;99504.38;4999713;28;20121;-50
2024/02/10 10:10:36;;;;;;;24.17;9.35;;;;;;;4.09;29.97;99502.97;4986740;28;20061;-44
2024/02/10 10:13:05;;;;;;;21.48;10.43;;;;;;;3.26;31.04;99514.91;4995895;28;20089;-42
2024/02/10 10:15:31;;;;;;;20.80;9.85;;;;;;;2.30;31.87;99475.31;4972375;28;20633;-41
2024/02/10 10:17:57;;;;;;;18.35;9.30;;;;;;;1.86;33.09;99511.34;4985254;28;20136;-44
2024/02/10 10:20:23;;;;;;;23.13;9.93;;;;;;;1.18;33.39;99478.97;4974672;28;20073;-41
2024/02/10 10:22:50;;;;;;;20.30;10.20;;;;;;;1.15;34.25;99525.91;4992104;28;20072;-43
2024/02/10 10:25:16;;;;;;;23.23;9.10;;;;;;;0.69;34.63;99486.59;4991202;28;20037;-43
2024/02/10 10:27:47;;;;;;;21.45;10.23;;;;;;;0.37;34.51;99458.38;4989483;28;20049;-43
2024/02/10 10:30:14;;;;;;;18.23;9.43;;;;;;;0.48;35.29;99532.56;4994213;28;20073;-42
2024/02/10 10:32:42;;;;;;;16.77;9.38;;;;;;;0.24;35.10;99530.78;4959169;28;20058;-42
2024/02/10 10:35:12;;;;;;;22.00;9.95;;;;;;;0.00;35.78;99536.63;4977005;28;20544;-43
2024/02/10 10:37:41;;;;;;;23.60;9.95;;;;;;;-0.25;36.12;99534.78;4996019;28;20518;-41
2024/02/10 10:40:08;;;;;;;22.20;9.32;;;;;;;-0.24;36.50;99554.38;4984548;28;20141;-41
2024/02/10 10:42:35;;;;;;;19.65;9.98;;;;;;;-0.32;36.64;99550.91;4970502;28;20049;-42
2024/02/10 10:45:01;;;;;;;23.20;10.32;;;;;;;-0.39;36.89;99544.03;4986518;28;20042;-42
2024/02/10 10:47:27;;;;;;;25.83;10.77;;;;;;;-0.52;36.91;99549.91;4973323;28;20093;-42
2024/02/10 10:49:54;;;;;;;24.30;9.65;;;;;;;-0.61;37.06;99545.56;4962388;28;20038;-44
2024/02/10 10:52:20;;;;;;;23.60;9.73;;;;;;;-0.77;37.35;99538.63;4986279;28;20045;-44
2024/02/10 10:54:49;;;;;;;19.88;8.20;;;;;;;-0.47;37.11;99563.53;4977760;28;20160;-41
2024/02/10 10:57:23;;;;;;;20.52;9.40;;;;;;;1.13;35.96;99558.34;4971890;28;20060;-42
2024/02/10 10:59:58;;;;;;;21.08;9.75;;;;;;;2.54;34.22;99527.34;4988428;28;20097;-41
2024/02/10 11:02:28;;;;;;;19.35;8.38;;;;;;;3.02;33.81;99521.94;4972481;28;20391;-44
2024/02/10 11:05:16;;;;;;;27.50;10.05;;;;;;;3.55;33.70;99531.81;4985084;28;20057;-42
2024/02/10 11:07:48;;;;;;;20.83;8.73;;;;;;;4.18;33.32;99558.66;4990923;28;20046;-40
2024/02/10 11:10:48;;;;;;;20.35;8.73;;;;;;;4.84;32.38;99569.00;4986658;28;20038;-40
2024/02/10 11:13:22;;;;;;;16.73;8.30;;;;;;;3.73;33.04;99554.78;4993692;28;20360;-42
2024/02/10 11:16:03;;;;;;;22.88;9.38;;;;;;;2.67;33.98;99569.19;4983532;28;20042;-43
2024/02/10 11:18:33;;;;;;;17.90;8.10;;;;;;;3.21;33.67;99562.91;4962551;28;20064;-43
2024/02/10 11:21:25;;;;;;;20.98;9.05;;;;;;;3.19;33.79;99561.22;4969534;28;20143;-41
2024/02/10 11:24:08;;;;;;;21.30;9.82;;;;;;;3.97;32.84;99561.44;4978372;28;20140;-42
2024/02/10 11:26:39;;;;;;;22.25;9.50;;;;;;;5.02;31.99;99571.34;4997137;28;20069;-41
2024/02/10 11:29:13;;;;;;;18.67;9.27;;;;;;;5.80;31.28;99571.84;4973999;28;20054;-42
2024/02/10 11:31:39;;;;;;;17.33;8.23;;;;;;;6.80;30.43;99569.94;4972100;28;20050;-42
2024/02/10 11:34:11;;;;;;;20.42;8.98;;;;;;;7.42;30.23;99566.88;4995951;28;20477;-42
2024/02/10 11:36:43;;;;;;;20.60;8.98;;;;;;;8.03;29.86;99576.56;4977317;28;20049;-41
2024/02/10 11:39:09;;;;;;;19.38;9.95;;;;;;;8.28;29.45;99580.19;4996939;28;20054;-45